sensor_id;sensor_type;location;lat;lon;timestamp;P1;durP1;ratioP1;P2;durP2;ratioP2
47966;SDS011;33733;52.456;13.620;2022-08-21T00:01:41;13.50;;;7.80;;
47966;SDS011;33733;52.456;13.620;2022-08-21T00:04:08;10.95;;;6.13;;
47966;SDS011;33733;52.456;13.620;2022-08-21T00:06:35;11.75;;;6.15;;
47966;SDS011;33733;52.456;13.620;2022-08-21T00:09:03;13.73;;;6.05;;
47966;SDS011;33733;52.456;13.620;2022-08-21T00:11:32;15.25;;;5.80;;
47966;SDS011;33733;52.456;13.620;2022-08-21T00:14:01;14.10;;;7.22;;
47966;SDS011;33733;52.456;13.620;2022-08-21T00:16:29;12.32;;;7.15;;
47966;SDS011;33733;52.456;13.620;2022-08-21T00:18:56;13.27;;;6.10;;
47966;SDS011;33733;52.456;13.620;2022-08-21T00:21:22;13.80;;;7.22;;
47966;SDS011;33733;52.456;13.620;2022-08-21T00:23:49;11.05;;;5.70;;
47966;SDS011;33733;52.456;13.620;2022-08-21T00:26:16;11.70;;;5.97;;
47966;SDS011;33733;52.456;13.620;2022-08-21T00:28:42;10.73;;;6.78;;
47966;SDS011;33733;52.456;13.620;2022-08-21T00:31:11;10.68;;;7.40;;
47966;SDS011;33733;52.456;13.620;2022-08-21T00:33:38;12.07;;;6.32;;
47966;SDS011;33733;52.456;13.620;2022-08-21T00:36:05;11.85;;;6.78;;
47966;SDS011;33733;52.456;13.620;2022-08-21T00:38:31;11.52;;;5.78;;
47966;SDS011;33733;52.456;13.620;2022-08-21T00:41:00;10.60;;;5.25;;
47966;SDS011;33733;52.456;13.620;2022-08-21T00:43:49;12.27;;;6.18;;
47966;SDS011;33733;52.456;13.620;2022-08-21T00:46:16;9.98;;;5.10;;
47966;SDS011;33733;52.456;13.620;2022-08-21T00:48:43;11.07;;;6.25;;
47966;SDS011;33733;52.456;13.620;2022-08-21T00:51:14;9.93;;;5.50;;
47966;SDS011;33733;52.456;13.620;2022-08-21T00:53:49;8.75;;;5.22;;
47966;SDS011;33733;52.456;13.620;2022-08-21T00:56:20;9.98;;;6.95;;
47966;SDS011;33733;52.456;13.620;2022-08-21T00:58:47;11.40;;;5.53;;
47966;SDS011;33733;52.456;13.620;2022-08-21T01:01:20;12.20;;;5.30;;
47966;SDS011;33733;52.456;13.620;2022-08-21T01:03:47;10.52;;;5.40;;
47966;SDS011;33733;52.456;13.620;2022-08-21T01:06:15;10.40;;;5.30;;
47966;SDS011;33733;52.456;13.620;2022-08-21T01:08:42;10.40;;;5.60;;
47966;SDS011;33733;52.456;13.620;2022-08-21T01:11:13;10.30;;;5.95;;
47966;SDS011;33733;52.456;13.620;2022-08-21T01:13:42;11.93;;;6.30;;
47966;SDS011;33733;52.456;13.620;2022-08-21T01:16:13;9.70;;;5.57;;
47966;SDS011;33733;52.456;13.620;2022-08-21T01:18:42;11.75;;;5.38;;
47966;SDS011;33733;52.456;13.620;2022-08-21T01:21:11;11.52;;;6.65;;
47966;SDS011;33733;52.456;13.620;2022-08-21T01:23:42;10.48;;;5.45;;
47966;SDS011;33733;52.456;13.620;2022-08-21T01:26:10;9.73;;;4.88;;
47966;SDS011;33733;52.456;13.620;2022-08-21T01:28:40;12.32;;;5.45;;
47966;SDS011;33733;52.456;13.620;2022-08-21T01:31:12;11.05;;;6.07;;
47966;SDS011;33733;52.456;13.620;2022-08-21T01:33:42;11.80;;;5.30;;
47966;SDS011;33733;52.456;13.620;2022-08-21T01:36:08;8.88;;;4.55;;
47966;SDS011;33733;52.456;13.620;2022-08-21T01:38:35;11.48;;;6.13;;
47966;SDS011;33733;52.456;13.620;2022-08-21T01:41:02;10.95;;;5.97;;
47966;SDS011;33733;52.456;13.620;2022-08-21T01:43:32;9.93;;;5.25;;
47966;SDS011;33733;52.456;13.620;2022-08-21T01:46:05;10.93;;;5.18;;
47966;SDS011;33733;52.456;13.620;2022-08-21T01:48:32;9.07;;;4.65;;
47966;SDS011;33733;52.456;13.620;2022-08-21T01:50:59;8.88;;;5.60;;
47966;SDS011;33733;52.456;13.620;2022-08-21T01:53:25;8.48;;;4.30;;
47966;SDS011;33733;52.456;13.620;2022-08-21T01:55:59;10.65;;;5.90;;
47966;SDS011;33733;52.456;13.620;2022-08-21T01:58:25;9.18;;;5.78;;
47966;SDS011;33733;52.456;13.620;2022-08-21T02:00:52;10.48;;;4.78;;
47966;SDS011;33733;52.456;13.620;2022-08-21T02:03:19;9.55;;;5.60;;
47966;SDS011;33733;52.456;13.620;2022-08-21T02:06:00;9.35;;;5.82;;
47966;SDS011;33733;52.456;13.620;2022-08-21T02:08:27;8.55;;;4.82;;
47966;SDS011;33733;52.456;13.620;2022-08-21T02:10:54;13.43;;;5.00;;
47966;SDS011;33733;52.456;13.620;2022-08-21T02:13:21;10.75;;;4.47;;
47966;SDS011;33733;52.456;13.620;2022-08-21T02:15:47;10.05;;;5.55;;
47966;SDS011;33733;52.456;13.620;2022-08-21T02:18:14;9.80;;;5.78;;
47966;SDS011;33733;52.456;13.620;2022-08-21T02:20:47;8.15;;;4.07;;
47966;SDS011;33733;52.456;13.620;2022-08-21T02:23:22;8.27;;;3.22;;
47966;SDS011;33733;52.456;13.620;2022-08-21T02:25:53;9.15;;;3.88;;
47966;SDS011;33733;52.456;13.620;2022-08-21T02:28:21;9.50;;;5.22;;
47966;SDS011;33733;52.456;13.620;2022-08-21T02:30:48;9.43;;;4.82;;
47966;SDS011;33733;52.456;13.620;2022-08-21T02:33:15;10.85;;;5.32;;
47966;SDS011;33733;52.456;13.620;2022-08-21T02:35:43;8.63;;;3.92;;
47966;SDS011;33733;52.456;13.620;2022-08-21T02:38:12;10.52;;;5.75;;
47966;SDS011;33733;52.456;13.620;2022-08-21T02:40:53;9.50;;;4.43;;
47966;SDS011;33733;52.456;13.620;2022-08-21T02:43:20;8.77;;;4.20;;
47966;SDS011;33733;52.456;13.620;2022-08-21T02:45:48;9.68;;;4.38;;
47966;SDS011;33733;52.456;13.620;2022-08-21T02:48:17;10.82;;;4.47;;
47966;SDS011;33733;52.456;13.620;2022-08-21T02:50:56;9.30;;;4.60;;
47966;SDS011;33733;52.456;13.620;2022-08-21T02:53:25;11.50;;;3.50;;
47966;SDS011;33733;52.456;13.620;2022-08-21T02:55:52;10.00;;;5.32;;
47966;SDS011;33733;52.456;13.620;2022-08-21T02:58:23;8.50;;;3.70;;
47966;SDS011;33733;52.456;13.620;2022-08-21T03:00:51;8.90;;;3.92;;
47966;SDS011;33733;52.456;13.620;2022-08-21T03:03:18;9.73;;;3.70;;
47966;SDS011;33733;52.456;13.620;2022-08-21T03:05:47;12.23;;;4.97;;
47966;SDS011;33733;52.456;13.620;2022-08-21T03:08:14;9.18;;;4.97;;
47966;SDS011;33733;52.456;13.620;2022-08-21T03:10:43;8.98;;;4.85;;
47966;SDS011;33733;52.456;13.620;2022-08-21T03:13:14;9.73;;;4.70;;
47966;SDS011;33733;52.456;13.620;2022-08-21T03:15:41;8.13;;;5.10;;
47966;SDS011;33733;52.456;13.620;2022-08-21T03:18:08;9.65;;;4.93;;
47966;SDS011;33733;52.456;13.620;2022-08-21T03:20:35;10.48;;;3.47;;
47966;SDS011;33733;52.456;13.620;2022-08-21T03:23:03;9.20;;;3.60;;
47966;SDS011;33733;52.456;13.620;2022-08-21T03:28:08;10.93;;;3.80;;
47966;SDS011;33733;52.456;13.620;2022-08-21T03:30:39;10.35;;;3.53;;
47966;SDS011;33733;52.456;13.620;2022-08-21T03:33:09;10.38;;;3.40;;
47966;SDS011;33733;52.456;13.620;2022-08-21T03:35:44;7.38;;;3.20;;
47966;SDS011;33733;52.456;13.620;2022-08-21T03:38:12;11.13;;;3.83;;
47966;SDS011;33733;52.456;13.620;2022-08-21T03:40:39;9.82;;;3.50;;
47966;SDS011;33733;52.456;13.620;2022-08-21T03:43:06;9.38;;;4.40;;
47966;SDS011;33733;52.456;13.620;2022-08-21T03:45:35;9.23;;;4.57;;
47966;SDS011;33733;52.456;13.620;2022-08-21T03:48:03;7.57;;;4.28;;
47966;SDS011;33733;52.456;13.620;2022-08-21T03:50:32;9.57;;;4.60;;
47966;SDS011;33733;52.456;13.620;2022-08-21T03:53:06;8.05;;;3.60;;
47966;SDS011;33733;52.456;13.620;2022-08-21T03:55:43;10.95;;;4.72;;
47966;SDS011;33733;52.456;13.620;2022-08-21T03:58:11;9.73;;;3.35;;
47966;SDS011;33733;52.456;13.620;2022-08-21T04:00:43;6.90;;;2.90;;
47966;SDS011;33733;52.456;13.620;2022-08-21T04:05:37;11.60;;;2.85;;
47966;SDS011;33733;52.456;13.620;2022-08-21T04:08:04;9.98;;;4.65;;
47966;SDS011;33733;52.456;13.620;2022-08-21T04:10:32;8.18;;;4.50;;
47966;SDS011;33733;52.456;13.620;2022-08-21T04:15:27;11.15;;;4.30;;
47966;SDS011;33733;52.456;13.620;2022-08-21T04:17:54;7.97;;;3.65;;
47966;SDS011;33733;52.456;13.620;2022-08-21T04:20:21;10.30;;;3.65;;
47966;SDS011;33733;52.456;13.620;2022-08-21T04:22:48;6.53;;;2.97;;
47966;SDS011;33733;52.456;13.620;2022-08-21T04:25:18;9.77;;;2.78;;
47966;SDS011;33733;52.456;13.620;2022-08-21T04:27:46;10.85;;;3.95;;
47966;SDS011;33733;52.456;13.620;2022-08-21T04:30:13;7.70;;;3.55;;
47966;SDS011;33733;52.456;13.620;2022-08-21T04:32:44;7.18;;;2.75;;
47966;SDS011;33733;52.456;13.620;2022-08-21T04:35:13;7.13;;;2.60;;
47966;SDS011;33733;52.456;13.620;2022-08-21T04:37:40;6.22;;;2.40;;
47966;SDS011;33733;52.456;13.620;2022-08-21T04:40:08;7.45;;;3.42;;
47966;SDS011;33733;52.456;13.620;2022-08-21T04:42:41;7.18;;;2.72;;
47966;SDS011;33733;52.456;13.620;2022-08-21T04:45:25;8.07;;;2.70;;
47966;SDS011;33733;52.456;13.620;2022-08-21T04:47:57;8.18;;;2.35;;
47966;SDS011;33733;52.456;13.620;2022-08-21T04:50:35;6.88;;;2.35;;
47966;SDS011;33733;52.456;13.620;2022-08-21T04:53:08;7.38;;;2.30;;
47966;SDS011;33733;52.456;13.620;2022-08-21T04:55:39;7.20;;;2.20;;
47966;SDS011;33733;52.456;13.620;2022-08-21T04:58:08;8.35;;;2.08;;
47966;SDS011;33733;52.456;13.620;2022-08-21T05:00:37;8.77;;;2.30;;
47966;SDS011;33733;52.456;13.620;2022-08-21T05:03:07;7.65;;;2.30;;
47966;SDS011;33733;52.456;13.620;2022-08-21T05:05:35;9.55;;;2.38;;
47966;SDS011;33733;52.456;13.620;2022-08-21T05:08:02;12.10;;;4.07;;
47966;SDS011;33733;52.456;13.620;2022-08-21T05:10:29;5.72;;;1.80;;
47966;SDS011;33733;52.456;13.620;2022-08-21T05:12:57;10.18;;;2.45;;
47966;SDS011;33733;52.456;13.620;2022-08-21T05:15:25;8.00;;;3.13;;
47966;SDS011;33733;52.456;13.620;2022-08-21T05:17:52;8.45;;;3.63;;
47966;SDS011;33733;52.456;13.620;2022-08-21T05:20:27;8.20;;;3.05;;
47966;SDS011;33733;52.456;13.620;2022-08-21T05:22:54;6.03;;;2.05;;
47966;SDS011;33733;52.456;13.620;2022-08-21T05:25:21;8.75;;;2.90;;
47966;SDS011;33733;52.456;13.620;2022-08-21T05:27:49;8.13;;;2.15;;
47966;SDS011;33733;52.456;13.620;2022-08-21T05:30:17;6.47;;;2.40;;
47966;SDS011;33733;52.456;13.620;2022-08-21T05:32:45;7.68;;;2.05;;
47966;SDS011;33733;52.456;13.620;2022-08-21T05:35:11;7.57;;;2.20;;
47966;SDS011;33733;52.456;13.620;2022-08-21T05:37:38;8.13;;;3.28;;
47966;SDS011;33733;52.456;13.620;2022-08-21T05:40:05;8.45;;;1.95;;
47966;SDS011;33733;52.456;13.620;2022-08-21T05:42:48;10.18;;;1.77;;
47966;SDS011;33733;52.456;13.620;2022-08-21T05:45:21;5.72;;;1.40;;
47966;SDS011;33733;52.456;13.620;2022-08-21T05:48:11;7.28;;;1.80;;
47966;SDS011;33733;52.456;13.620;2022-08-21T05:50:57;8.35;;;2.92;;
47966;SDS011;33733;52.456;13.620;2022-08-21T05:53:24;8.77;;;2.42;;
47966;SDS011;33733;52.456;13.620;2022-08-21T05:55:51;10.27;;;2.90;;
47966;SDS011;33733;52.456;13.620;2022-08-21T05:58:18;6.47;;;1.80;;
47966;SDS011;33733;52.456;13.620;2022-08-21T06:00:46;10.40;;;2.00;;
47966;SDS011;33733;52.456;13.620;2022-08-21T06:03:20;5.93;;;1.38;;
47966;SDS011;33733;52.456;13.620;2022-08-21T06:05:52;10.23;;;2.95;;
47966;SDS011;33733;52.456;13.620;2022-08-21T06:08:19;8.10;;;3.13;;
47966;SDS011;33733;52.456;13.620;2022-08-21T06:10:46;6.63;;;2.35;;
47966;SDS011;33733;52.456;13.620;2022-08-21T06:13:14;6.90;;;2.50;;
47966;SDS011;33733;52.456;13.620;2022-08-21T06:15:41;12.55;;;1.95;;
47966;SDS011;33733;52.456;13.620;2022-08-21T06:18:08;10.77;;;2.40;;
47966;SDS011;33733;52.456;13.620;2022-08-21T06:20:35;7.32;;;1.80;;
47966;SDS011;33733;52.456;13.620;2022-08-21T06:23:02;6.75;;;1.70;;
47966;SDS011;33733;52.456;13.620;2022-08-21T06:25:29;7.22;;;2.42;;
47966;SDS011;33733;52.456;13.620;2022-08-21T06:28:06;7.85;;;2.45;;
47966;SDS011;33733;52.456;13.620;2022-08-21T06:30:35;5.97;;;1.40;;
47966;SDS011;33733;52.456;13.620;2022-08-21T06:33:02;5.43;;;1.35;;
47966;SDS011;33733;52.456;13.620;2022-08-21T06:35:29;8.13;;;1.73;;
47966;SDS011;33733;52.456;13.620;2022-08-21T06:37:56;6.13;;;2.15;;
47966;SDS011;33733;52.456;13.620;2022-08-21T06:40:23;6.10;;;2.22;;
47966;SDS011;33733;52.456;13.620;2022-08-21T06:42:50;6.18;;;1.30;;
47966;SDS011;33733;52.456;13.620;2022-08-21T06:45:17;8.40;;;2.22;;
47966;SDS011;33733;52.456;13.620;2022-08-21T06:47:43;6.85;;;1.92;;
47966;SDS011;33733;52.456;13.620;2022-08-21T06:50:10;9.48;;;1.45;;
47966;SDS011;33733;52.456;13.620;2022-08-21T06:52:37;8.35;;;1.90;;
47966;SDS011;33733;52.456;13.620;2022-08-21T06:55:04;6.10;;;1.35;;
47966;SDS011;33733;52.456;13.620;2022-08-21T06:57:32;8.43;;;2.72;;
47966;SDS011;33733;52.456;13.620;2022-08-21T06:59:59;8.30;;;1.83;;
47966;SDS011;33733;52.456;13.620;2022-08-21T07:02:25;5.32;;;1.25;;
47966;SDS011;33733;52.456;13.620;2022-08-21T07:05:01;5.65;;;1.05;;
47966;SDS011;33733;52.456;13.620;2022-08-21T07:07:43;8.57;;;0.93;;
47966;SDS011;33733;52.456;13.620;2022-08-21T07:13:52;5.57;;;1.25;;
47966;SDS011;33733;52.456;13.620;2022-08-21T07:16:21;6.90;;;1.30;;
47966;SDS011;33733;52.456;13.620;2022-08-21T07:18:47;6.47;;;1.83;;
47966;SDS011;33733;52.456;13.620;2022-08-21T07:21:14;8.30;;;2.15;;
47966;SDS011;33733;52.456;13.620;2022-08-21T07:23:46;9.18;;;1.05;;
47966;SDS011;33733;52.456;13.620;2022-08-21T07:26:24;7.55;;;1.75;;
47966;SDS011;33733;52.456;13.620;2022-08-21T07:28:54;8.65;;;2.05;;
47966;SDS011;33733;52.456;13.620;2022-08-21T07:31:22;7.07;;;0.90;;
47966;SDS011;33733;52.456;13.620;2022-08-21T07:33:49;6.68;;;1.60;;
47966;SDS011;33733;52.456;13.620;2022-08-21T07:36:17;5.43;;;0.90;;
47966;SDS011;33733;52.456;13.620;2022-08-21T07:42:25;8.27;;;1.23;;
47966;SDS011;33733;52.456;13.620;2022-08-21T07:44:54;5.28;;;0.60;;
47966;SDS011;33733;52.456;13.620;2022-08-21T07:47:22;5.35;;;0.90;;
47966;SDS011;33733;52.456;13.620;2022-08-21T07:50:08;8.10;;;0.70;;
47966;SDS011;33733;52.456;13.620;2022-08-21T07:52:38;5.25;;;0.98;;
47966;SDS011;33733;52.456;13.620;2022-08-21T07:55:10;3.63;;;0.80;;
47966;SDS011;33733;52.456;13.620;2022-08-21T07:57:39;7.85;;;1.38;;
47966;SDS011;33733;52.456;13.620;2022-08-21T08:00:07;6.57;;;1.73;;
47966;SDS011;33733;52.456;13.620;2022-08-21T08:02:38;6.45;;;0.88;;
47966;SDS011;33733;52.456;13.620;2022-08-21T08:05:07;5.43;;;1.00;;
47966;SDS011;33733;52.456;13.620;2022-08-21T08:07:35;4.55;;;0.63;;
47966;SDS011;33733;52.456;13.620;2022-08-21T08:10:03;6.85;;;0.77;;
47966;SDS011;33733;52.456;13.620;2022-08-21T08:12:37;5.57;;;0.63;;
47966;SDS011;33733;52.456;13.620;2022-08-21T08:15:08;8.63;;;1.67;;
47966;SDS011;33733;52.456;13.620;2022-08-21T08:17:37;6.78;;;1.90;;
47966;SDS011;33733;52.456;13.620;2022-08-21T08:20:05;6.70;;;0.95;;
47966;SDS011;33733;52.456;13.620;2022-08-21T08:22:34;6.82;;;1.75;;
47966;SDS011;33733;52.456;13.620;2022-08-21T08:25:05;4.35;;;0.80;;
47966;SDS011;33733;52.456;13.620;2022-08-21T08:27:38;5.72;;;0.93;;
47966;SDS011;33733;52.456;13.620;2022-08-21T08:30:05;5.97;;;1.73;;
47966;SDS011;33733;52.456;13.620;2022-08-21T08:32:33;4.70;;;0.93;;
47966;SDS011;33733;52.456;13.620;2022-08-21T08:35:00;9.82;;;1.67;;
47966;SDS011;33733;52.456;13.620;2022-08-21T08:37:26;5.20;;;0.80;;
47966;SDS011;33733;52.456;13.620;2022-08-21T08:40:02;6.57;;;1.63;;
47966;SDS011;33733;52.456;13.620;2022-08-21T08:45:02;13.38;;;0.75;;
47966;SDS011;33733;52.456;13.620;2022-08-21T08:47:36;5.60;;;0.55;;
47966;SDS011;33733;52.456;13.620;2022-08-21T08:52:43;6.32;;;2.08;;
47966;SDS011;33733;52.456;13.620;2022-08-21T08:55:21;6.30;;;2.22;;
47966;SDS011;33733;52.456;13.620;2022-08-21T08:57:52;6.47;;;0.65;;
47966;SDS011;33733;52.456;13.620;2022-08-21T09:00:20;5.40;;;0.82;;
47966;SDS011;33733;52.456;13.620;2022-08-21T09:02:48;7.25;;;1.65;;
47966;SDS011;33733;52.456;13.620;2022-08-21T09:05:22;4.22;;;0.60;;
47966;SDS011;33733;52.456;13.620;2022-08-21T09:10:50;7.78;;;1.10;;
47966;SDS011;33733;52.456;13.620;2022-08-21T09:16:40;6.13;;;1.15;;
47966;SDS011;33733;52.456;13.620;2022-08-21T09:19:49;7.30;;;1.15;;
47966;SDS011;33733;52.456;13.620;2022-08-21T09:27:53;7.03;;;1.25;;
47966;SDS011;33733;52.456;13.620;2022-08-21T09:30:29;6.45;;;1.00;;
47966;SDS011;33733;52.456;13.620;2022-08-21T09:32:58;6.82;;;1.40;;
47966;SDS011;33733;52.456;13.620;2022-08-21T09:35:32;5.60;;;1.50;;
47966;SDS011;33733;52.456;13.620;2022-08-21T09:38:03;6.00;;;0.95;;
47966;SDS011;33733;52.456;13.620;2022-08-21T09:40:43;5.43;;;0.80;;
47966;SDS011;33733;52.456;13.620;2022-08-21T09:48:24;7.45;;;1.55;;
47966;SDS011;33733;52.456;13.620;2022-08-21T09:56:36;6.53;;;2.33;;
47966;SDS011;33733;52.456;13.620;2022-08-21T09:59:36;7.40;;;1.80;;
47966;SDS011;33733;52.456;13.620;2022-08-21T10:02:25;7.50;;;1.65;;
47966;SDS011;33733;52.456;13.620;2022-08-21T10:05:01;7.40;;;2.20;;
47966;SDS011;33733;52.456;13.620;2022-08-21T10:07:30;5.60;;;1.75;;
47966;SDS011;33733;52.456;13.620;2022-08-21T10:10:05;6.72;;;1.85;;
47966;SDS011;33733;52.456;13.620;2022-08-21T10:20:45;6.32;;;0.93;;
47966;SDS011;33733;52.456;13.620;2022-08-21T10:31:22;6.43;;;1.85;;
47966;SDS011;33733;52.456;13.620;2022-08-21T10:36:43;7.30;;;1.65;;
47966;SDS011;33733;52.456;13.620;2022-08-21T10:39:35;5.25;;;0.73;;
47966;SDS011;33733;52.456;13.620;2022-08-21T10:42:10;6.38;;;0.98;;
47966;SDS011;33733;52.456;13.620;2022-08-21T10:44:49;6.07;;;1.00;;
47966;SDS011;33733;52.456;13.620;2022-08-21T10:47:35;6.05;;;0.80;;
47966;SDS011;33733;52.456;13.620;2022-08-21T10:52:53;4.47;;;0.95;;
47966;SDS011;33733;52.456;13.620;2022-08-21T10:58:30;6.93;;;1.50;;
47966;SDS011;33733;52.456;13.620;2022-08-21T11:01:08;5.43;;;0.93;;
47966;SDS011;33733;52.456;13.620;2022-08-21T11:03:50;7.80;;;1.52;;
47966;SDS011;33733;52.456;13.620;2022-08-21T11:06:25;5.35;;;0.90;;
47966;SDS011;33733;52.456;13.620;2022-08-21T11:08:58;4.60;;;0.90;;
47966;SDS011;33733;52.456;13.620;2022-08-21T11:11:39;7.28;;;0.80;;
47966;SDS011;33733;52.456;13.620;2022-08-21T11:17:11;5.00;;;0.80;;
47966;SDS011;33733;52.456;13.620;2022-08-21T11:19:45;5.30;;;0.73;;
47966;SDS011;33733;52.456;13.620;2022-08-21T11:30:11;5.20;;;1.27;;
47966;SDS011;33733;52.456;13.620;2022-08-21T11:35:34;7.03;;;1.77;;
47966;SDS011;33733;52.456;13.620;2022-08-21T11:43:38;8.25;;;1.63;;
47966;SDS011;33733;52.456;13.620;2022-08-21T11:46:14;5.90;;;0.80;;
47966;SDS011;33733;52.456;13.620;2022-08-21T11:51:51;5.25;;;1.70;;
47966;SDS011;33733;52.456;13.620;2022-08-21T11:57:28;6.07;;;1.25;;
47966;SDS011;33733;52.456;13.620;2022-08-21T12:00:11;6.72;;;1.67;;
47966;SDS011;33733;52.456;13.620;2022-08-21T12:02:50;5.60;;;2.03;;
47966;SDS011;33733;52.456;13.620;2022-08-21T12:05:23;6.32;;;0.90;;
47966;SDS011;33733;52.456;13.620;2022-08-21T12:08:06;5.90;;;1.02;;
47966;SDS011;33733;52.456;13.620;2022-08-21T12:10:40;5.20;;;1.73;;
47966;SDS011;33733;52.456;13.620;2022-08-21T12:13:24;4.60;;;0.80;;
47966;SDS011;33733;52.456;13.620;2022-08-21T12:16:08;4.97;;;0.77;;
47966;SDS011;33733;52.456;13.620;2022-08-21T12:18:37;5.50;;;1.65;;
47966;SDS011;33733;52.456;13.620;2022-08-21T12:21:22;4.22;;;1.08;;
47966;SDS011;33733;52.456;13.620;2022-08-21T12:26:49;6.38;;;1.08;;
47966;SDS011;33733;52.456;13.620;2022-08-21T12:29:22;4.63;;;1.05;;
47966;SDS011;33733;52.456;13.620;2022-08-21T12:31:56;5.57;;;1.40;;
47966;SDS011;33733;52.456;13.620;2022-08-21T12:34:24;5.47;;;1.02;;
47966;SDS011;33733;52.456;13.620;2022-08-21T12:36:59;3.97;;;0.80;;
47966;SDS011;33733;52.456;13.620;2022-08-21T12:39:29;6.28;;;1.00;;
47966;SDS011;33733;52.456;13.620;2022-08-21T12:42:04;5.82;;;0.80;;
47966;SDS011;33733;52.456;13.620;2022-08-21T12:44:36;4.45;;;1.73;;
47966;SDS011;33733;52.456;13.620;2022-08-21T12:47:12;5.10;;;0.80;;
47966;SDS011;33733;52.456;13.620;2022-08-21T12:49:53;4.88;;;0.88;;
47966;SDS011;33733;52.456;13.620;2022-08-21T12:55:05;5.88;;;0.98;;
47966;SDS011;33733;52.456;13.620;2022-08-21T12:57:35;5.38;;;0.98;;
47966;SDS011;33733;52.456;13.620;2022-08-21T13:00:04;5.47;;;0.98;;
47966;SDS011;33733;52.456;13.620;2022-08-21T13:02:50;6.50;;;0.95;;
47966;SDS011;33733;52.456;13.620;2022-08-21T13:05:30;6.32;;;1.13;;
47966;SDS011;33733;52.456;13.620;2022-08-21T13:08:03;7.30;;;0.82;;
47966;SDS011;33733;52.456;13.620;2022-08-21T13:10:31;4.82;;;1.67;;
47966;SDS011;33733;52.456;13.620;2022-08-21T13:13:00;5.07;;;0.90;;
47966;SDS011;33733;52.456;13.620;2022-08-21T13:15:38;4.88;;;0.85;;
47966;SDS011;33733;52.456;13.620;2022-08-21T13:18:19;4.65;;;1.70;;
47966;SDS011;33733;52.456;13.620;2022-08-21T13:20:49;4.47;;;0.95;;
47966;SDS011;33733;52.456;13.620;2022-08-21T13:23:23;5.03;;;0.65;;
47966;SDS011;33733;52.456;13.620;2022-08-21T13:25:52;3.88;;;0.85;;
47966;SDS011;33733;52.456;13.620;2022-08-21T13:28:19;7.25;;;1.55;;
47966;SDS011;33733;52.456;13.620;2022-08-21T13:30:53;3.80;;;1.48;;
47966;SDS011;33733;52.456;13.620;2022-08-21T13:33:22;6.82;;;1.98;;
47966;SDS011;33733;52.456;13.620;2022-08-21T13:36:04;5.43;;;0.85;;
47966;SDS011;33733;52.456;13.620;2022-08-21T13:38:35;3.97;;;0.98;;
47966;SDS011;33733;52.456;13.620;2022-08-21T13:41:04;5.32;;;1.17;;
47966;SDS011;33733;52.456;13.620;2022-08-21T13:43:36;5.65;;;2.17;;
47966;SDS011;33733;52.456;13.620;2022-08-21T13:46:08;6.15;;;1.63;;
47966;SDS011;33733;52.456;13.620;2022-08-21T13:48:36;5.05;;;1.85;;
47966;SDS011;33733;52.456;13.620;2022-08-21T13:51:03;5.50;;;1.90;;
47966;SDS011;33733;52.456;13.620;2022-08-21T13:53:31;5.45;;;1.80;;
47966;SDS011;33733;52.456;13.620;2022-08-21T13:56:02;3.42;;;0.80;;
47966;SDS011;33733;52.456;13.620;2022-08-21T13:58:31;5.32;;;0.98;;
47966;SDS011;33733;52.456;13.620;2022-08-21T14:01:20;4.55;;;0.82;;
47966;SDS011;33733;52.456;13.620;2022-08-21T14:03:57;3.83;;;1.13;;
47966;SDS011;33733;52.456;13.620;2022-08-21T14:06:32;4.88;;;0.80;;
47966;SDS011;33733;52.456;13.620;2022-08-21T14:09:01;4.28;;;1.33;;
47966;SDS011;33733;52.456;13.620;2022-08-21T14:14:03;2.83;;;0.60;;
47966;SDS011;33733;52.456;13.620;2022-08-21T14:16:44;5.32;;;1.90;;
47966;SDS011;33733;52.456;13.620;2022-08-21T14:19:49;3.83;;;0.93;;
47966;SDS011;33733;52.456;13.620;2022-08-21T14:27:42;5.00;;;2.42;;
47966;SDS011;33733;52.456;13.620;2022-08-21T14:30:18;3.10;;;0.50;;
47966;SDS011;33733;52.456;13.620;2022-08-21T14:32:54;4.53;;;1.73;;
47966;SDS011;33733;52.456;13.620;2022-08-21T14:35:20;5.57;;;1.45;;
47966;SDS011;33733;52.456;13.620;2022-08-21T14:37:49;4.25;;;0.80;;
47966;SDS011;33733;52.456;13.620;2022-08-21T14:40:16;4.10;;;0.85;;
47966;SDS011;33733;52.456;13.620;2022-08-21T14:42:44;4.22;;;0.60;;
47966;SDS011;33733;52.456;13.620;2022-08-21T14:45:19;4.85;;;1.70;;
47966;SDS011;33733;52.456;13.620;2022-08-21T14:47:53;4.47;;;0.50;;
47966;SDS011;33733;52.456;13.620;2022-08-21T14:50:20;5.35;;;1.60;;
47966;SDS011;33733;52.456;13.620;2022-08-21T14:52:46;4.65;;;1.48;;
47966;SDS011;33733;52.456;13.620;2022-08-21T14:55:15;4.82;;;0.95;;
47966;SDS011;33733;52.456;13.620;2022-08-21T14:57:46;3.80;;;0.68;;
47966;SDS011;33733;52.456;13.620;2022-08-21T15:00:16;3.40;;;0.70;;
47966;SDS011;33733;52.456;13.620;2022-08-21T15:02:45;3.47;;;0.63;;
47966;SDS011;33733;52.456;13.620;2022-08-21T15:05:14;5.20;;;0.73;;
47966;SDS011;33733;52.456;13.620;2022-08-21T15:07:49;4.97;;;0.73;;
47966;SDS011;33733;52.456;13.620;2022-08-21T15:10:16;3.20;;;0.77;;
47966;SDS011;33733;52.456;13.620;2022-08-21T15:12:42;8.32;;;0.82;;
47966;SDS011;33733;52.456;13.620;2022-08-21T15:15:09;5.88;;;1.33;;
47966;SDS011;33733;52.456;13.620;2022-08-21T15:17:36;9.43;;;1.55;;
47966;SDS011;33733;52.456;13.620;2022-08-21T15:20:05;3.15;;;0.70;;
47966;SDS011;33733;52.456;13.620;2022-08-21T15:22:32;4.10;;;0.80;;
47966;SDS011;33733;52.456;13.620;2022-08-21T15:24:59;3.35;;;0.90;;
47966;SDS011;33733;52.456;13.620;2022-08-21T15:27:27;5.85;;;0.80;;
47966;SDS011;33733;52.456;13.620;2022-08-21T15:29:54;4.50;;;1.73;;
47966;SDS011;33733;52.456;13.620;2022-08-21T15:32:22;5.43;;;1.67;;
47966;SDS011;33733;52.456;13.620;2022-08-21T15:34:51;4.65;;;1.15;;
47966;SDS011;33733;52.456;13.620;2022-08-21T15:37:18;5.03;;;1.75;;
47966;SDS011;33733;52.456;13.620;2022-08-21T15:39:44;5.00;;;0.82;;
47966;SDS011;33733;52.456;13.620;2022-08-21T15:42:19;3.65;;;0.60;;
47966;SDS011;33733;52.456;13.620;2022-08-21T15:44:46;4.18;;;0.75;;
47966;SDS011;33733;52.456;13.620;2022-08-21T15:47:15;9.20;;;0.70;;
47966;SDS011;33733;52.456;13.620;2022-08-21T15:49:43;4.07;;;0.85;;
47966;SDS011;33733;52.456;13.620;2022-08-21T15:52:12;6.15;;;1.65;;
47966;SDS011;33733;52.456;13.620;2022-08-21T15:54:43;12.18;;;0.82;;
47966;SDS011;33733;52.456;13.620;2022-08-21T15:57:14;5.78;;;1.20;;
47966;SDS011;33733;52.456;13.620;2022-08-21T15:59:43;6.85;;;0.90;;
47966;SDS011;33733;52.456;13.620;2022-08-21T16:02:13;3.92;;;0.80;;
47966;SDS011;33733;52.456;13.620;2022-08-21T16:04:42;4.40;;;1.08;;
47966;SDS011;33733;52.456;13.620;2022-08-21T16:07:09;6.30;;;0.60;;
47966;SDS011;33733;52.456;13.620;2022-08-21T16:09:36;4.47;;;0.82;;
47966;SDS011;33733;52.456;13.620;2022-08-21T16:12:03;5.45;;;1.25;;
47966;SDS011;33733;52.456;13.620;2022-08-21T16:14:31;5.20;;;1.38;;
47966;SDS011;33733;52.456;13.620;2022-08-21T16:16:59;5.60;;;1.05;;
47966;SDS011;33733;52.456;13.620;2022-08-21T16:19:27;5.30;;;0.80;;
47966;SDS011;33733;52.456;13.620;2022-08-21T16:21:54;6.60;;;1.67;;
47966;SDS011;33733;52.456;13.620;2022-08-21T16:24:20;7.63;;;1.20;;
47966;SDS011;33733;52.456;13.620;2022-08-21T16:26:48;4.70;;;0.80;;
47966;SDS011;33733;52.456;13.620;2022-08-21T16:29:23;4.97;;;1.70;;
47966;SDS011;33733;52.456;13.620;2022-08-21T16:31:51;10.50;;;1.75;;
47966;SDS011;33733;52.456;13.620;2022-08-21T16:34:18;6.05;;;1.50;;
47966;SDS011;33733;52.456;13.620;2022-08-21T16:36:45;7.50;;;1.15;;
47966;SDS011;33733;52.456;13.620;2022-08-21T16:39:13;6.00;;;1.85;;